sensor_id;sensor_type;location;lat;lon;timestamp;pressure;altitude;pressure_sealevel;temperature;humidity
3132;BME280;62090;52.330;9.104;2023-04-19T00:02:19;102299.72;;;11.04;65.78
3132;BME280;62090;52.330;9.104;2023-04-19T00:04:50;102292.13;;;11.05;65.70
3132;BME280;62090;52.330;9.104;2023-04-19T00:07:21;102277.06;;;10.92;65.82
3132;BME280;62090;52.330;9.104;2023-04-19T00:09:51;102309.66;;;11.15;65.62
3132;BME280;62090;52.330;9.104;2023-04-19T00:12:23;102314.44;;;10.91;64.38
3132;BME280;62090;52.330;9.104;2023-04-19T00:14:53;102305.03;;;10.90;63.27
3132;BME280;62090;52.330;9.104;2023-04-19T00:17:23;102309.03;;;10.85;62.02
3132;BME280;62090;52.330;9.104;2023-04-19T00:19:53;102290.16;;;10.64;61.29
3132;BME280;62090;52.330;9.104;2023-04-19T00:22:23;102281.63;;;10.64;61.53
3132;BME280;62090;52.330;9.104;2023-04-19T00:24:53;102280.91;;;10.66;60.95
3132;BME280;62090;52.330;9.104;2023-04-19T00:27:25;102300.00;;;10.74;58.64
3132;BME280;62090;52.330;9.104;2023-04-19T00:29:55;102280.41;;;10.55;58.98
3132;BME280;62090;52.330;9.104;2023-04-19T00:32:25;102293.06;;;10.54;58.34
3132;BME280;62090;52.330;9.104;2023-04-19T00:34:56;102285.81;;;10.62;58.85
3132;BME280;62090;52.330;9.104;2023-04-19T00:37:26;102276.09;;;10.54;58.11
3132;BME280;62090;52.330;9.104;2023-04-19T00:39:56;102299.88;;;10.71;58.47
3132;BME280;62090;52.330;9.104;2023-04-19T00:42:28;102295.94;;;10.78;58.19
3132;BME280;62090;52.330;9.104;2023-04-19T00:44:58;102300.09;;;10.76;56.35
3132;BME280;62090;52.330;9.104;2023-04-19T00:47:29;102294.31;;;10.62;56.28
3132;BME280;62090;52.330;9.104;2023-04-19T00:49:59;102287.78;;;10.67;56.10
3132;BME280;62090;52.330;9.104;2023-04-19T00:52:29;102277.63;;;10.51;55.85
3132;BME280;62090;52.330;9.104;2023-04-19T00:54:59;102291.25;;;10.69;55.33
3132;BME280;62090;52.330;9.104;2023-04-19T00:57:32;102290.91;;;10.62;54.05
3132;BME280;62090;52.330;9.104;2023-04-19T01:00:03;102297.34;;;10.55;52.19
3132;BME280;62090;52.330;9.104;2023-04-19T01:02:35;102293.72;;;10.50;51.04
3132;BME280;62090;52.330;9.104;2023-04-19T01:05:06;102275.56;;;10.44;50.75
3132;BME280;62090;52.330;9.104;2023-04-19T01:07:38;102297.63;;;10.43;50.50
3132;BME280;62090;52.330;9.104;2023-04-19T01:10:09;102298.25;;;10.55;50.70
3132;BME280;62090;52.330;9.104;2023-04-19T01:12:42;102258.94;;;10.34;50.98
3132;BME280;62090;52.330;9.104;2023-04-19T01:15:12;102279.66;;;10.40;51.00
3132;BME280;62090;52.330;9.104;2023-04-19T01:17:42;102281.41;;;10.41;51.63
3132;BME280;62090;52.330;9.104;2023-04-19T01:20:12;102294.94;;;10.58;51.60
3132;BME280;62090;52.330;9.104;2023-04-19T01:22:44;102296.75;;;10.43;51.50
3132;BME280;62090;52.330;9.104;2023-04-19T01:25:14;102301.25;;;10.31;51.54
3132;BME280;62090;52.330;9.104;2023-04-19T01:27:44;102293.53;;;10.29;51.92
3132;BME280;62090;52.330;9.104;2023-04-19T01:30:14;102289.22;;;10.28;52.53
3132;BME280;62090;52.330;9.104;2023-04-19T01:32:44;102293.91;;;10.21;52.00
3132;BME280;62090;52.330;9.104;2023-04-19T01:35:14;102273.41;;;10.18;51.66
3132;BME280;62090;52.330;9.104;2023-04-19T01:37:46;102267.50;;;10.19;51.87
3132;BME280;62090;52.330;9.104;2023-04-19T01:40:17;102280.69;;;10.28;52.54
3132;BME280;62090;52.330;9.104;2023-04-19T01:42:47;102279.75;;;10.09;52.54
3132;BME280;62090;52.330;9.104;2023-04-19T01:45:16;102288.44;;;9.97;53.27
3132;BME280;62090;52.330;9.104;2023-04-19T01:47:50;102280.56;;;9.76;53.32
3132;BME280;62090;52.330;9.104;2023-04-19T01:50:19;102270.50;;;9.63;53.24
3132;BME280;62090;52.330;9.104;2023-04-19T01:52:52;102239.72;;;9.42;53.53
3132;BME280;62090;52.330;9.104;2023-04-19T01:55:22;102276.25;;;9.59;53.89
3132;BME280;62090;52.330;9.104;2023-04-19T01:57:52;102286.34;;;9.57;55.07
3132;BME280;62090;52.330;9.104;2023-04-19T02:00:22;102297.06;;;9.52;55.12
3132;BME280;62090;52.330;9.104;2023-04-19T02:02:52;102290.69;;;9.44;55.10
3132;BME280;62090;52.330;9.104;2023-04-19T02:05:22;102297.50;;;9.28;55.67
3132;BME280;62090;52.330;9.104;2023-04-19T02:07:55;102277.22;;;8.99;56.13
3132;BME280;62090;52.330;9.104;2023-04-19T02:10:29;102281.16;;;8.94;56.47
3132;BME280;62090;52.330;9.104;2023-04-19T02:12:59;102267.19;;;8.71;57.00
3132;BME280;62090;52.330;9.104;2023-04-19T02:15:29;102271.41;;;8.71;56.73
3132;BME280;62090;52.330;9.104;2023-04-19T02:17:59;102289.09;;;8.69;57.58
3132;BME280;62090;52.330;9.104;2023-04-19T02:20:32;102278.06;;;8.54;57.82
3132;BME280;62090;52.330;9.104;2023-04-19T02:23:05;102295.41;;;8.46;58.44
3132;BME280;62090;52.330;9.104;2023-04-19T02:25:35;102290.94;;;8.42;58.25
3132;BME280;62090;52.330;9.104;2023-04-19T02:28:05;102278.66;;;8.35;58.86
3132;BME280;62090;52.330;9.104;2023-04-19T02:30:36;102285.34;;;8.33;58.59
3132;BME280;62090;52.330;9.104;2023-04-19T02:33:06;102278.84;;;8.38;58.82
3132;BME280;62090;52.330;9.104;2023-04-19T02:35:36;102289.13;;;8.40;59.36
3132;BME280;62090;52.330;9.104;2023-04-19T02:38:08;102300.00;;;8.24;59.79
3132;BME280;62090;52.330;9.104;2023-04-19T02:40:38;102287.19;;;8.08;59.69
3132;BME280;62090;52.330;9.104;2023-04-19T02:43:08;102289.13;;;8.12;60.15
3132;BME280;62090;52.330;9.104;2023-04-19T02:45:38;102297.47;;;8.24;60.12
3132;BME280;62090;52.330;9.104;2023-04-19T02:48:07;102304.91;;;8.21;60.19
3132;BME280;62090;52.330;9.104;2023-04-19T02:50:37;102306.03;;;8.26;60.51
3132;BME280;62090;52.330;9.104;2023-04-19T02:53:10;102311.72;;;8.22;60.69
3132;BME280;62090;52.330;9.104;2023-04-19T02:55:40;102312.84;;;8.13;61.41
3132;BME280;62090;52.330;9.104;2023-04-19T02:58:15;102295.06;;;7.98;61.30
3132;BME280;62090;52.330;9.104;2023-04-19T03:01:04;102293.84;;;8.06;61.66
3132;BME280;62090;52.330;9.104;2023-04-19T03:03:34;102309.81;;;8.18;61.59
3132;BME280;62090;52.330;9.104;2023-04-19T03:06:04;102298.25;;;8.09;61.40
3132;BME280;62090;52.330;9.104;2023-04-19T03:08:38;102296.44;;;7.93;62.18
3132;BME280;62090;52.330;9.104;2023-04-19T03:11:08;102307.78;;;7.85;62.37
3132;BME280;62090;52.330;9.104;2023-04-19T03:13:38;102307.63;;;7.82;62.67
3132;BME280;62090;52.330;9.104;2023-04-19T03:16:08;102316.78;;;7.80;62.69
3132;BME280;62090;52.330;9.104;2023-04-19T03:18:40;102297.59;;;7.70;62.94
3132;BME280;62090;52.330;9.104;2023-04-19T03:21:11;102302.78;;;7.72;63.38
3132;BME280;62090;52.330;9.104;2023-04-19T03:23:50;102300.19;;;7.85;63.41
3132;BME280;62090;52.330;9.104;2023-04-19T03:26:21;102270.41;;;7.54;63.49
3132;BME280;62090;52.330;9.104;2023-04-19T03:28:53;102289.06;;;7.55;63.96
3132;BME280;62090;52.330;9.104;2023-04-19T03:31:32;102294.84;;;7.39;64.37
3132;BME280;62090;52.330;9.104;2023-04-19T03:34:03;102301.56;;;7.26;64.66
3132;BME280;62090;52.330;9.104;2023-04-19T03:36:38;102307.25;;;7.21;65.15
3132;BME280;62090;52.330;9.104;2023-04-19T03:39:11;102298.06;;;7.10;65.23
3132;BME280;62090;52.330;9.104;2023-04-19T03:41:44;102307.44;;;6.98;66.08
3132;BME280;62090;52.330;9.104;2023-04-19T03:44:24;102298.19;;;6.99;66.08
3132;BME280;62090;52.330;9.104;2023-04-19T03:46:54;102304.53;;;6.92;66.40
3132;BME280;62090;52.330;9.104;2023-04-19T03:49:28;102291.34;;;6.85;66.26
3132;BME280;62090;52.330;9.104;2023-04-19T03:52:04;102299.56;;;6.81;66.50
3132;BME280;62090;52.330;9.104;2023-04-19T03:54:36;102305.22;;;6.76;67.20
3132;BME280;62090;52.330;9.104;2023-04-19T03:57:15;102311.81;;;6.74;67.18
3132;BME280;62090;52.330;9.104;2023-04-19T03:59:46;102308.47;;;6.62;67.43
3132;BME280;62090;52.330;9.104;2023-04-19T04:02:17;102304.19;;;6.61;67.92
3132;BME280;62090;52.330;9.104;2023-04-19T04:04:52;102309.19;;;6.73;67.35
3132;BME280;62090;52.330;9.104;2023-04-19T04:07:23;102312.47;;;6.72;67.84
3132;BME280;62090;52.330;9.104;2023-04-19T04:09:55;102316.59;;;6.70;68.16
3132;BME280;62090;52.330;9.104;2023-04-19T04:12:25;102300.88;;;6.49;68.71
3132;BME280;62090;52.330;9.104;2023-04-19T04:14:56;102317.53;;;6.59;68.83
3132;BME280;62090;52.330;9.104;2023-04-19T04:17:27;102306.34;;;6.55;68.96
3132;BME280;62090;52.330;9.104;2023-04-19T04:19:57;102241.00;;;6.12;69.14
3132;BME280;62090;52.330;9.104;2023-04-19T04:22:29;102320.06;;;6.59;69.32
3132;BME280;62090;52.330;9.104;2023-04-19T04:25:02;102281.16;;;6.32;69.92
3132;BME280;62090;52.330;9.104;2023-04-19T04:27:36;102292.19;;;6.46;69.61
3132;BME280;62090;52.330;9.104;2023-04-19T04:30:11;102313.91;;;6.42;69.97
3132;BME280;62090;52.330;9.104;2023-04-19T04:32:41;102322.69;;;6.47;70.57
3132;BME280;62090;52.330;9.104;2023-04-19T04:35:13;102320.72;;;6.43;70.21
3132;BME280;62090;52.330;9.104;2023-04-19T04:37:55;102334.34;;;6.45;70.68
3132;BME280;62090;52.330;9.104;2023-04-19T04:40:28;102324.50;;;6.36;70.90
3132;BME280;62090;52.330;9.104;2023-04-19T04:42:58;102321.84;;;6.35;71.24
3132;BME280;62090;52.330;9.104;2023-04-19T04:45:31;102312.72;;;6.37;71.04
3132;BME280;62090;52.330;9.104;2023-04-19T04:48:03;102325.63;;;6.53;70.71
3132;BME280;62090;52.330;9.104;2023-04-19T04:50:32;102328.16;;;6.53;70.69
3132;BME280;62090;52.330;9.104;2023-04-19T04:53:02;102332.19;;;6.38;71.41
3132;BME280;62090;52.330;9.104;2023-04-19T04:55:35;102327.13;;;6.38;71.68
3132;BME280;62090;52.330;9.104;2023-04-19T04:58:05;102346.22;;;6.46;71.44
3132;BME280;62090;52.330;9.104;2023-04-19T05:00:48;102321.66;;;6.32;71.93
3132;BME280;62090;52.330;9.104;2023-04-19T05:03:18;102337.88;;;6.47;71.33
3132;BME280;62090;52.330;9.104;2023-04-19T05:05:53;102331.97;;;6.35;71.63
3132;BME280;62090;52.330;9.104;2023-04-19T05:08:24;102327.13;;;6.38;72.00
3132;BME280;62090;52.330;9.104;2023-04-19T05:11:02;102327.09;;;6.50;72.03
3132;BME280;62090;52.330;9.104;2023-04-19T05:13:32;102331.84;;;6.58;71.53
3132;BME280;62090;52.330;9.104;2023-04-19T05:16:03;102343.88;;;6.74;71.80
3132;BME280;62090;52.330;9.104;2023-04-19T05:18:33;102332.84;;;6.73;70.71
3132;BME280;62090;52.330;9.104;2023-04-19T05:21:04;102343.41;;;6.93;70.30
3132;BME280;62090;52.330;9.104;2023-04-19T05:23:37;102336.59;;;6.92;70.23
3132;BME280;62090;52.330;9.104;2023-04-19T05:26:10;102346.31;;;6.99;70.02
3132;BME280;62090;52.330;9.104;2023-04-19T05:28:43;102310.63;;;6.83;70.25
3132;BME280;62090;52.330;9.104;2023-04-19T05:31:20;102324.28;;;6.85;70.66
3132;BME280;62090;52.330;9.104;2023-04-19T05:34:04;102339.44;;;6.96;70.64
3132;BME280;62090;52.330;9.104;2023-04-19T05:36:34;102341.25;;;6.99;70.72
3132;BME280;62090;52.330;9.104;2023-04-19T05:39:03;102335.63;;;7.03;70.72
3132;BME280;62090;52.330;9.104;2023-04-19T05:41:36;102332.28;;;7.04;70.88
3132;BME280;62090;52.330;9.104;2023-04-19T05:44:06;102339.22;;;7.06;70.94
3132;BME280;62090;52.330;9.104;2023-04-19T05:46:36;102315.53;;;6.93;70.86
3132;BME280;62090;52.330;9.104;2023-04-19T05:49:09;102350.53;;;7.11;70.99
3132;BME280;62090;52.330;9.104;2023-04-19T05:51:58;102316.19;;;7.03;70.93
3132;BME280;62090;52.330;9.104;2023-04-19T05:54:39;102321.19;;;7.15;70.73
3132;BME280;62090;52.330;9.104;2023-04-19T05:57:13;102334.47;;;7.24;70.63
3132;BME280;62090;52.330;9.104;2023-04-19T05:59:42;102339.41;;;7.36;69.92
3132;BME280;62090;52.330;9.104;2023-04-19T06:02:15;102326.72;;;7.36;69.41
3132;BME280;62090;52.330;9.104;2023-04-19T06:04:46;102338.13;;;7.42;69.54
3132;BME280;62090;52.330;9.104;2023-04-19T06:07:16;102324.41;;;7.39;69.38
3132;BME280;62090;52.330;9.104;2023-04-19T06:09:59;102335.97;;;7.35;68.67
3132;BME280;62090;52.330;9.104;2023-04-19T06:12:32;102340.56;;;7.54;68.53
3132;BME280;62090;52.330;9.104;2023-04-19T06:15:02;102331.69;;;7.47;68.88
3132;BME280;62090;52.330;9.104;2023-04-19T06:17:32;102293.56;;;7.33;68.53
3132;BME280;62090;52.330;9.104;2023-04-19T06:20:03;102301.53;;;7.52;68.93
3132;BME280;62090;52.330;9.104;2023-04-19T06:22:34;102322.03;;;7.83;68.82
3132;BME280;62090;52.330;9.104;2023-04-19T06:25:04;102128.66;;;6.75;68.60
3132;BME280;62090;52.330;9.104;2023-04-19T06:27:36;102331.81;;;8.04;68.07
3132;BME280;62090;52.330;9.104;2023-04-19T06:30:07;102337.38;;;8.12;67.18
3132;BME280;62090;52.330;9.104;2023-04-19T06:32:38;102338.34;;;8.14;67.12
3132;BME280;62090;52.330;9.104;2023-04-19T06:35:08;102336.97;;;8.19;66.96
3132;BME280;62090;52.330;9.104;2023-04-19T06:37:38;102322.16;;;8.27;67.41
3132;BME280;62090;52.330;9.104;2023-04-19T06:40:09;102331.78;;;8.60;67.51
3132;BME280;62090;52.330;9.104;2023-04-19T06:42:41;102327.75;;;8.49;66.63
3132;BME280;62090;52.330;9.104;2023-04-19T06:45:11;102332.31;;;8.55;66.71
3132;BME280;62090;52.330;9.104;2023-04-19T06:47:41;102328.88;;;8.69;67.39
3132;BME280;62090;52.330;9.104;2023-04-19T06:50:11;102316.34;;;8.86;66.98
3132;BME280;62090;52.330;9.104;2023-04-19T06:52:41;102323.88;;;9.14;66.06
3132;BME280;62090;52.330;9.104;2023-04-19T06:55:11;102336.09;;;9.21;65.62
3132;BME280;62090;52.330;9.104;2023-04-19T06:57:44;102264.84;;;8.60;64.66
3132;BME280;62090;52.330;9.104;2023-04-19T07:00:14;102288.75;;;8.48;66.30
3132;BME280;62090;52.330;9.104;2023-04-19T07:02:44;102299.53;;;8.74;65.34
3132;BME280;62090;52.330;9.104;2023-04-19T07:05:14;102321.91;;;9.10;64.59
3132;BME280;62090;52.330;9.104;2023-04-19T07:07:44;102301.34;;;8.91;65.32
3132;BME280;62090;52.330;9.104;2023-04-19T07:10:14;102305.00;;;9.11;65.01
3132;BME280;62090;52.330;9.104;2023-04-19T07:12:46;102288.84;;;9.10;64.66
3132;BME280;62090;52.330;9.104;2023-04-19T07:15:16;102313.94;;;9.19;65.36
3132;BME280;62090;52.330;9.104;2023-04-19T07:17:46;102284.78;;;8.83;64.77
3132;BME280;62090;52.330;9.104;2023-04-19T07:20:16;102309.88;;;8.92;66.26
3132;BME280;62090;52.330;9.104;2023-04-19T07:22:45;102295.00;;;8.99;65.01
3132;BME280;62090;52.330;9.104;2023-04-19T07:25:17;102310.03;;;9.09;65.83
3132;BME280;62090;52.330;9.104;2023-04-19T07:27:51;102307.25;;;9.21;65.82
3132;BME280;62090;52.330;9.104;2023-04-19T07:30:21;102291.19;;;9.22;63.98
3132;BME280;62090;52.330;9.104;2023-04-19T07:32:51;102297.06;;;9.36;63.43
3132;BME280;62090;52.330;9.104;2023-04-19T07:35:21;102297.94;;;9.52;64.47
3132;BME280;62090;52.330;9.104;2023-04-19T07:37:51;102267.66;;;9.41;64.04
3132;BME280;62090;52.330;9.104;2023-04-19T07:40:21;102284.19;;;9.49;64.09
3132;BME280;62090;52.330;9.104;2023-04-19T07:42:54;102222.03;;;9.13;63.38
3132;BME280;62090;52.330;9.104;2023-04-19T07:45:24;102290.41;;;9.70;64.26
3132;BME280;62090;52.330;9.104;2023-04-19T07:47:53;102259.44;;;9.62;63.41
3132;BME280;62090;52.330;9.104;2023-04-19T07:50:24;102274.03;;;9.81;62.61
3132;BME280;62090;52.330;9.104;2023-04-19T07:52:54;102269.25;;;9.71;62.44
3132;BME280;62090;52.330;9.104;2023-04-19T07:55:24;102267.03;;;9.61;62.40
3132;BME280;62090;52.330;9.104;2023-04-19T07:57:56;102266.06;;;9.59;62.58
3132;BME280;62090;52.330;9.104;2023-04-19T08:00:26;102280.66;;;9.94;63.67
3132;BME280;62090;52.330;9.104;2023-04-19T08:02:57;102250.38;;;9.84;62.92
3132;BME280;62090;52.330;9.104;2023-04-19T08:05:27;102264.88;;;9.85;61.29
3132;BME280;62090;52.330;9.104;2023-04-19T08:07:57;102263.06;;;9.82;62.02
3132;BME280;62090;52.330;9.104;2023-04-19T08:10:29;102251.66;;;9.92;60.58
3132;BME280;62090;52.330;9.104;2023-04-19T08:13:01;102233.41;;;10.00;61.91
3132;BME280;62090;52.330;9.104;2023-04-19T08:15:32;102264.94;;;10.35;60.24
3132;BME280;62090;52.330;9.104;2023-04-19T08:18:22;102260.22;;;10.26;59.07
3132;BME280;62090;52.330;9.104;2023-04-19T08:20:52;102248.53;;;10.30;59.61
3132;BME280;62090;52.330;9.104;2023-04-19T08:23:22;102236.81;;;10.33;60.34
3132;BME280;62090;52.330;9.104;2023-04-19T08:26:03;102256.56;;;10.55;59.87
3132;BME280;62090;52.330;9.104;2023-04-19T08:28:36;102198.50;;;10.32;59.49
3132;BME280;62090;52.330;9.104;2023-04-19T08:31:06;102222.66;;;10.56;59.30
3132;BME280;62090;52.330;9.104;2023-04-19T08:33:36;102241.72;;;10.82;58.88
3132;BME280;62090;52.330;9.104;2023-04-19T08:36:07;102240.72;;;10.78;57.17
3132;BME280;62090;52.330;9.104;2023-04-19T08:38:38;102210.41;;;10.67;56.20
3132;BME280;62090;52.330;9.104;2023-04-19T08:41:16;102225.44;;;10.78;55.34
3132;BME280;62090;52.330;9.104;2023-04-19T08:43:50;102170.22;;;10.61;55.14
3132;BME280;62090;52.330;9.104;2023-04-19T08:46:21;102171.97;;;10.62;54.66
3132;BME280;62090;52.330;9.104;2023-04-19T08:48:53;102223.41;;;11.08;55.60
3132;BME280;62090;52.330;9.104;2023-04-19T08:51:24;102227.13;;;11.15;53.81
3132;BME280;62090;52.330;9.104;2023-04-19T08:53:55;102218.09;;;11.04;54.02
3132;BME280;62090;52.330;9.104;2023-04-19T08:56:25;102225.09;;;11.27;54.98
3132;BME280;62090;52.330;9.104;2023-04-19T08:59:04;102218.41;;;11.29;52.77
3132;BME280;62090;52.330;9.104;2023-04-19T09:01:45;102161.22;;;11.06;53.64
3132;BME280;62090;52.330;9.104;2023-04-19T09:04:15;102211.03;;;11.54;54.97
3132;BME280;62090;52.330;9.104;2023-04-19T09:07:01;102193.75;;;11.49;51.98
3132;BME280;62090;52.330;9.104;2023-04-19T09:09:31;102181.81;;;11.28;52.05
3132;BME280;62090;52.330;9.104;2023-04-19T09:12:15;102194.38;;;11.62;53.23
3132;BME280;62090;52.330;9.104;2023-04-19T09:14:48;102193.19;;;11.73;50.81
3132;BME280;62090;52.330;9.104;2023-04-19T09:17:21;102170.03;;;11.70;51.67
3132;BME280;62090;52.330;9.104;2023-04-19T09:19:51;102186.97;;;11.88;50.89
3132;BME280;62090;52.330;9.104;2023-04-19T09:22:21;102185.75;;;11.99;49.10
3132;BME280;62090;52.330;9.104;2023-04-19T09:24:51;102145.56;;;11.95;47.34
3132;BME280;62090;52.330;9.104;2023-04-19T09:27:26;102187.94;;;12.31;44.69
3132;BME280;62090;52.330;9.104;2023-04-19T09:30:02;102191.56;;;12.36;45.88
3132;BME280;62090;52.330;9.104;2023-04-19T09:32:47;102162.56;;;12.36;45.30
3132;BME280;62090;52.330;9.104;2023-04-19T09:35:17;102165.53;;;12.46;45.37
3132;BME280;62090;52.330;9.104;2023-04-19T09:37:59;102187.31;;;12.57;43.36
3132;BME280;62090;52.330;9.104;2023-04-19T09:40:33;102165.19;;;12.59;44.38
3132;BME280;62090;52.330;9.104;2023-04-19T09:43:03;102158.41;;;12.60;42.98
3132;BME280;62090;52.330;9.104;2023-04-19T09:45:55;102161.59;;;12.54;43.24
3132;BME280;62090;52.330;9.104;2023-04-19T09:48:25;102166.00;;;12.58;43.22
3132;BME280;62090;52.330;9.104;2023-04-19T09:50:56;102145.75;;;12.63;43.90
3132;BME280;62090;52.330;9.104;2023-04-19T09:53:33;102162.56;;;12.79;44.26
3132;BME280;62090;52.330;9.104;2023-04-19T09:56:03;102149.47;;;12.71;43.03
3132;BME280;62090;52.330;9.104;2023-04-19T09:58:33;102138.59;;;12.77;44.96
3132;BME280;62090;52.330;9.104;2023-04-19T10:01:19;102106.38;;;12.59;43.75
3132;BME280;62090;52.330;9.104;2023-04-19T10:03:50;102136.75;;;12.73;42.72
3132;BME280;62090;52.330;9.104;2023-04-19T10:06:21;102136.53;;;12.90;42.94
3132;BME280;62090;52.330;9.104;2023-04-19T10:09:13;102096.28;;;12.85;42.93
3132;BME280;62090;52.330;9.104;2023-04-19T10:11:47;102123.22;;;13.21;43.59
3132;BME280;62090;52.330;9.104;2023-04-19T10:14:24;102109.06;;;13.08;41.14
3132;BME280;62090;52.330;9.104;2023-04-19T10:16:57;102118.09;;;12.99;42.64
3132;BME280;62090;52.330;9.104;2023-04-19T10:19:27;102120.03;;;13.04;42.62
3132;BME280;62090;52.330;9.104;2023-04-19T10:21:57;102074.00;;;12.82;42.19
3132;BME280;62090;52.330;9.104;2023-04-19T10:24:32;102090.13;;;13.03;43.59
3132;BME280;62090;52.330;9.104;2023-04-19T10:27:07;102113.31;;;13.30;42.34
3132;BME280;62090;52.330;9.104;2023-04-19T10:29:54;102105.72;;;13.33;42.88
3132;BME280;62090;52.330;9.104;2023-04-19T10:32:29;102101.09;;;13.23;42.14
3132;BME280;62090;52.330;9.104;2023-04-19T10:35:00;102099.06;;;13.38;44.25
3132;BME280;62090;52.330;9.104;2023-04-19T10:37:31;102091.88;;;13.52;41.38
3132;BME280;62090;52.330;9.104;2023-04-19T10:40:01;102085.59;;;13.44;41.45
3132;BME280;62090;52.330;9.104;2023-04-19T10:45:46;102049.16;;;13.27;40.77
3132;BME280;62090;52.330;9.104;2023-04-19T10:48:39;102078.34;;;13.56;42.13
3132;BME280;62090;52.330;9.104;2023-04-19T10:51:14;102073.22;;;13.56;40.88
3132;BME280;62090;52.330;9.104;2023-04-19T10:53:49;102015.44;;;13.39;40.96
3132;BME280;62090;52.330;9.104;2023-04-19T10:56:22;102063.38;;;13.68;40.60
3132;BME280;62090;52.330;9.104;2023-04-19T10:59:14;102023.69;;;13.56;39.78
3132;BME280;62090;52.330;9.104;2023-04-19T11:01:52;102025.97;;;13.73;38.60
3132;BME280;62090;52.330;9.104;2023-04-19T11:04:58;102021.00;;;13.78;38.84
3132;BME280;62090;52.330;9.104;2023-04-19T11:07:40;102022.53;;;14.00;39.78
3132;BME280;62090;52.330;9.104;2023-04-19T11:10:10;102030.00;;;14.20;40.04
3132;BME280;62090;52.330;9.104;2023-04-19T11:12:41;101995.88;;;14.21;37.22
3132;BME280;62090;52.330;9.104;2023-04-19T11:15:12;102008.34;;;14.38;38.27
3132;BME280;62090;52.330;9.104;2023-04-19T11:17:42;102003.03;;;14.33;38.04
3132;BME280;62090;52.330;9.104;2023-04-19T11:20:14;102003.06;;;14.34;38.89
3132;BME280;62090;52.330;9.104;2023-04-19T11:22:45;101987.75;;;14.36;38.15
3132;BME280;62090;52.330;9.104;2023-04-19T11:25:16;101984.81;;;14.52;39.92
3132;BME280;62090;52.330;9.104;2023-04-19T11:27:49;101992.47;;;14.51;37.14
3132;BME280;62090;52.330;9.104;2023-04-19T11:30:21;101975.56;;;14.29;37.24
3132;BME280;62090;52.330;9.104;2023-04-19T11:32:53;101969.66;;;14.31;37.66
3132;BME280;62090;52.330;9.104;2023-04-19T11:35:27;101969.72;;;14.34;37.38
3132;BME280;62090;52.330;9.104;2023-04-19T11:37:57;101972.50;;;14.41;37.37
3132;BME280;62090;52.330;9.104;2023-04-19T11:40:27;101972.47;;;14.39;37.76
3132;BME280;62090;52.330;9.104;2023-04-19T11:42:59;101950.59;;;14.23;37.94
3132;BME280;62090;52.330;9.104;2023-04-19T11:45:31;101953.53;;;14.35;36.46
3132;BME280;62090;52.330;9.104;2023-04-19T11:48:06;101955.56;;;14.46;36.99
3132;BME280;62090;52.330;9.104;2023-04-19T11:50:44;101960.69;;;14.46;36.81
3132;BME280;62090;52.330;9.104;2023-04-19T11:53:17;101942.91;;;14.23;37.03
3132;BME280;62090;52.330;9.104;2023-04-19T11:55:48;101959.47;;;14.34;36.99
3132;BME280;62090;52.330;9.104;2023-04-19T11:58:27;101936.59;;;14.41;38.95
3132;BME280;62090;52.330;9.104;2023-04-19T12:01:02;101934.28;;;14.50;37.78
3132;BME280;62090;52.330;9.104;2023-04-19T12:03:33;101954.78;;;14.48;37.09
3132;BME280;62090;52.330;9.104;2023-04-19T12:06:10;101893.38;;;14.24;37.88
3132;BME280;62090;52.330;9.104;2023-04-19T12:08:43;101943.16;;;14.61;39.69
3132;BME280;62090;52.330;9.104;2023-04-19T12:11:13;101939.75;;;14.62;38.00
3132;BME280;62090;52.330;9.104;2023-04-19T12:13:44;101941.16;;;14.51;39.35
3132;BME280;62090;52.330;9.104;2023-04-19T12:16:14;101913.59;;;14.44;37.43
3132;BME280;62090;52.330;9.104;2023-04-19T12:18:55;101932.72;;;14.55;37.93
3132;BME280;62090;52.330;9.104;2023-04-19T12:21:30;101935.75;;;14.71;40.91
3132;BME280;62090;52.330;9.104;2023-04-19T12:24:00;101917.72;;;14.68;37.91
3132;BME280;62090;52.330;9.104;2023-04-19T12:26:30;101900.94;;;14.48;37.97
3132;BME280;62090;52.330;9.104;2023-04-19T12:29:01;101932.28;;;14.69;37.90
3132;BME280;62090;52.330;9.104;2023-04-19T12:31:31;101912.66;;;14.71;37.75
3132;BME280;62090;52.330;9.104;2023-04-19T12:34:01;101921.44;;;14.81;39.12
3132;BME280;62090;52.330;9.104;2023-04-19T12:36:34;101920.28;;;14.70;37.76
3132;BME280;62090;52.330;9.104;2023-04-19T12:39:04;101898.38;;;14.50;36.64
3132;BME280;62090;52.330;9.104;2023-04-19T12:41:34;101881.28;;;14.49;37.54
3132;BME280;62090;52.330;9.104;2023-04-19T12:44:04;101896.75;;;14.86;39.49
3132;BME280;62090;52.330;9.104;2023-04-19T12:46:34;101907.09;;;14.88;36.37
3132;BME280;62090;52.330;9.104;2023-04-19T12:49:05;101888.91;;;14.78;36.38
3132;BME280;62090;52.330;9.104;2023-04-19T12:51:37;101895.88;;;14.84;36.60
3132;BME280;62090;52.330;9.104;2023-04-19T12:54:08;101918.75;;;14.76;36.70
3132;BME280;62090;52.330;9.104;2023-04-19T12:56:38;101911.94;;;14.77;39.06
3132;BME280;62090;52.330;9.104;2023-04-19T12:59:08;101902.59;;;14.79;37.67
3132;BME280;62090;52.330;9.104;2023-04-19T13:01:37;101902.03;;;14.91;36.32
3132;BME280;62090;52.330;9.104;2023-04-19T13:04:07;101876.94;;;14.79;36.43
3132;BME280;62090;52.330;9.104;2023-04-19T13:06:41;101893.88;;;15.07;39.91
3132;BME280;62090;52.330;9.104;2023-04-19T13:09:11;101878.59;;;15.11;37.55
3132;BME280;62090;52.330;9.104;2023-04-19T13:11:41;101881.59;;;15.30;37.94
3132;BME280;62090;52.330;9.104;2023-04-19T13:14:11;101877.97;;;15.21;36.88
3132;BME280;62090;52.330;9.104;2023-04-19T13:16:41;101872.03;;;15.23;37.73
3132;BME280;62090;52.330;9.104;2023-04-19T13:19:11;101876.72;;;15.42;37.66
3132;BME280;62090;52.330;9.104;2023-04-19T13:21:44;101867.97;;;15.34;37.79
3132;BME280;62090;52.330;9.104;2023-04-19T13:24:14;101859.91;;;15.18;37.79
3132;BME280;62090;52.330;9.104;2023-04-19T13:26:44;101875.91;;;15.43;37.60
3132;BME280;62090;52.330;9.104;2023-04-19T13:29:14;101870.91;;;15.11;37.77
3132;BME280;62090;52.330;9.104;2023-04-19T13:31:44;101875.97;;;15.10;38.62
3132;BME280;62090;52.330;9.104;2023-04-19T13:34:15;101874.75;;;14.94;37.73
3132;BME280;62090;52.330;9.104;2023-04-19T13:36:47;101854.97;;;14.90;37.46